sensor_id;sensor_type;location;lat;lon;timestamp;P1;durP1;ratioP1;P2;durP2;ratioP2
36653;SDS011;22650;49.350;20.898;2023-04-03T00:00:39;0.30;;;0.20;;
36653;SDS011;22650;49.350;20.898;2023-04-03T00:03:12;1.05;;;0.60;;
36653;SDS011;22650;49.350;20.898;2023-04-03T00:05:46;1.48;;;0.70;;
36653;SDS011;22650;49.350;20.898;2023-04-03T00:08:20;1.00;;;0.40;;
36653;SDS011;22650;49.350;20.898;2023-04-03T00:10:55;1.00;;;0.38;;
36653;SDS011;22650;49.350;20.898;2023-04-03T00:13:28;1.10;;;0.60;;
36653;SDS011;22650;49.350;20.898;2023-04-03T00:16:02;0.35;;;0.30;;
36653;SDS011;22650;49.350;20.898;2023-04-03T00:18:36;1.90;;;0.82;;
36653;SDS011;22650;49.350;20.898;2023-04-03T00:21:12;1.42;;;0.50;;
36653;SDS011;22650;49.350;20.898;2023-04-03T00:23:46;0.75;;;0.45;;
36653;SDS011;22650;49.350;20.898;2023-04-03T00:26:21;0.90;;;0.68;;
36653;SDS011;22650;49.350;20.898;2023-04-03T00:28:54;0.95;;;0.63;;
36653;SDS011;22650;49.350;20.898;2023-04-03T00:31:28;1.08;;;0.50;;
36653;SDS011;22650;49.350;20.898;2023-04-03T00:34:01;2.72;;;1.10;;
36653;SDS011;22650;49.350;20.898;2023-04-03T00:36:35;1.70;;;0.85;;
36653;SDS011;22650;49.350;20.898;2023-04-03T00:39:08;2.28;;;0.80;;
36653;SDS011;22650;49.350;20.898;2023-04-03T00:41:43;2.80;;;1.42;;
36653;SDS011;22650;49.350;20.898;2023-04-03T00:44:21;1.35;;;0.93;;
36653;SDS011;22650;49.350;20.898;2023-04-03T00:47:16;2.10;;;0.80;;
36653;SDS011;22650;49.350;20.898;2023-04-03T00:49:51;1.90;;;0.60;;
36653;SDS011;22650;49.350;20.898;2023-04-03T00:52:27;2.55;;;0.55;;
36653;SDS011;22650;49.350;20.898;2023-04-03T00:55:04;6.53;;;2.78;;
36653;SDS011;22650;49.350;20.898;2023-04-03T00:57:41;1.67;;;1.00;;
36653;SDS011;22650;49.350;20.898;2023-04-03T01:00:16;0.63;;;0.60;;
36653;SDS011;22650;49.350;20.898;2023-04-03T01:02:55;0.52;;;0.35;;
36653;SDS011;22650;49.350;20.898;2023-04-03T01:05:29;0.90;;;0.40;;
36653;SDS011;22650;49.350;20.898;2023-04-03T01:08:04;0.98;;;0.68;;
36653;SDS011;22650;49.350;20.898;2023-04-03T01:10:38;1.17;;;0.50;;
36653;SDS011;22650;49.350;20.898;2023-04-03T01:13:19;1.20;;;0.68;;
36653;SDS011;22650;49.350;20.898;2023-04-03T01:15:54;0.95;;;0.50;;
36653;SDS011;22650;49.350;20.898;2023-04-03T01:18:30;0.60;;;0.40;;
36653;SDS011;22650;49.350;20.898;2023-04-03T01:21:09;0.70;;;0.57;;
36653;SDS011;22650;49.350;20.898;2023-04-03T01:24:05;0.47;;;0.47;;
36653;SDS011;22650;49.350;20.898;2023-04-03T01:26:54;0.50;;;0.40;;
36653;SDS011;22650;49.350;20.898;2023-04-03T01:29:28;0.77;;;0.70;;
36653;SDS011;22650;49.350;20.898;2023-04-03T01:32:03;1.25;;;0.40;;
36653;SDS011;22650;49.350;20.898;2023-04-03T01:34:37;0.70;;;0.65;;
36653;SDS011;22650;49.350;20.898;2023-04-03T01:37:11;1.48;;;0.73;;
36653;SDS011;22650;49.350;20.898;2023-04-03T01:39:44;1.05;;;0.60;;
36653;SDS011;22650;49.350;20.898;2023-04-03T01:42:18;1.25;;;0.80;;
36653;SDS011;22650;49.350;20.898;2023-04-03T01:44:51;1.75;;;0.60;;
36653;SDS011;22650;49.350;20.898;2023-04-03T01:47:26;1.23;;;0.68;;
36653;SDS011;22650;49.350;20.898;2023-04-03T01:50:00;0.63;;;0.57;;
36653;SDS011;22650;49.350;20.898;2023-04-03T01:52:36;0.60;;;0.32;;
36653;SDS011;22650;49.350;20.898;2023-04-03T01:55:10;0.82;;;0.57;;
36653;SDS011;22650;49.350;20.898;2023-04-03T01:57:43;0.63;;;0.60;;
36653;SDS011;22650;49.350;20.898;2023-04-03T02:00:17;3.53;;;0.60;;
36653;SDS011;22650;49.350;20.898;2023-04-03T02:02:52;0.75;;;0.40;;
36653;SDS011;22650;49.350;20.898;2023-04-03T02:05:26;0.80;;;0.52;;
36653;SDS011;22650;49.350;20.898;2023-04-03T02:07:59;1.13;;;0.40;;
36653;SDS011;22650;49.350;20.898;2023-04-03T02:10:33;0.60;;;0.20;;
36653;SDS011;22650;49.350;20.898;2023-04-03T02:13:07;1.05;;;0.47;;
36653;SDS011;22650;49.350;20.898;2023-04-03T02:15:40;0.57;;;0.50;;
36653;SDS011;22650;49.350;20.898;2023-04-03T02:18:15;0.65;;;0.50;;
36653;SDS011;22650;49.350;20.898;2023-04-03T02:20:49;4.07;;;0.50;;
36653;SDS011;22650;49.350;20.898;2023-04-03T02:23:23;0.52;;;0.20;;
36653;SDS011;22650;49.350;20.898;2023-04-03T02:26:02;0.68;;;0.40;;
36653;SDS011;22650;49.350;20.898;2023-04-03T02:28:37;0.52;;;0.35;;
36653;SDS011;22650;49.350;20.898;2023-04-03T02:31:12;0.70;;;0.30;;
36653;SDS011;22650;49.350;20.898;2023-04-03T02:33:49;0.45;;;0.40;;
36653;SDS011;22650;49.350;20.898;2023-04-03T02:36:23;0.17;;;0.17;;
36653;SDS011;22650;49.350;20.898;2023-04-03T02:39:01;1.17;;;0.63;;
36653;SDS011;22650;49.350;20.898;2023-04-03T02:41:35;0.38;;;0.17;;
36653;SDS011;22650;49.350;20.898;2023-04-03T02:44:14;0.80;;;0.40;;
36653;SDS011;22650;49.350;20.898;2023-04-03T02:46:47;1.20;;;0.30;;
36653;SDS011;22650;49.350;20.898;2023-04-03T02:49:22;0.35;;;0.25;;
36653;SDS011;22650;49.350;20.898;2023-04-03T02:51:56;0.73;;;0.60;;
36653;SDS011;22650;49.350;20.898;2023-04-03T02:54:30;0.30;;;0.30;;
36653;SDS011;22650;49.350;20.898;2023-04-03T02:57:07;1.08;;;0.40;;
36653;SDS011;22650;49.350;20.898;2023-04-03T02:59:41;0.20;;;0.20;;
36653;SDS011;22650;49.350;20.898;2023-04-03T03:02:16;0.93;;;0.40;;
36653;SDS011;22650;49.350;20.898;2023-04-03T03:04:51;0.40;;;0.40;;
36653;SDS011;22650;49.350;20.898;2023-04-03T03:07:25;0.52;;;0.32;;
36653;SDS011;22650;49.350;20.898;2023-04-03T03:09:58;1.92;;;1.55;;
36653;SDS011;22650;49.350;20.898;2023-04-03T03:12:32;1.30;;;0.47;;
36653;SDS011;22650;49.350;20.898;2023-04-03T03:15:05;0.40;;;0.40;;
36653;SDS011;22650;49.350;20.898;2023-04-03T03:17:40;1.15;;;0.63;;
36653;SDS011;22650;49.350;20.898;2023-04-03T03:20:15;1.63;;;0.90;;
36653;SDS011;22650;49.350;20.898;2023-04-03T03:22:49;0.75;;;0.40;;
36653;SDS011;22650;49.350;20.898;2023-04-03T03:25:22;0.93;;;0.50;;
36653;SDS011;22650;49.350;20.898;2023-04-03T03:27:56;0.55;;;0.55;;
36653;SDS011;22650;49.350;20.898;2023-04-03T03:30:30;0.47;;;0.43;;
36653;SDS011;22650;49.350;20.898;2023-04-03T03:33:03;1.75;;;0.60;;
36653;SDS011;22650;49.350;20.898;2023-04-03T03:35:38;0.63;;;0.30;;
36653;SDS011;22650;49.350;20.898;2023-04-03T03:38:12;1.85;;;0.45;;
36653;SDS011;22650;49.350;20.898;2023-04-03T03:40:46;2.58;;;0.65;;
36653;SDS011;22650;49.350;20.898;2023-04-03T03:43:23;0.50;;;0.40;;
36653;SDS011;22650;49.350;20.898;2023-04-03T03:45:58;0.55;;;0.52;;
36653;SDS011;22650;49.350;20.898;2023-04-03T03:48:32;1.35;;;0.77;;
36653;SDS011;22650;49.350;20.898;2023-04-03T03:51:07;0.70;;;0.52;;
36653;SDS011;22650;49.350;20.898;2023-04-03T03:53:42;0.95;;;0.50;;
36653;SDS011;22650;49.350;20.898;2023-04-03T03:56:20;1.13;;;0.40;;
36653;SDS011;22650;49.350;20.898;2023-04-03T03:58:54;0.70;;;0.40;;
36653;SDS011;22650;49.350;20.898;2023-04-03T04:01:28;0.55;;;0.35;;
36653;SDS011;22650;49.350;20.898;2023-04-03T04:04:02;1.05;;;0.60;;
36653;SDS011;22650;49.350;20.898;2023-04-03T04:06:37;3.78;;;1.63;;
36653;SDS011;22650;49.350;20.898;2023-04-03T04:09:13;1.65;;;0.50;;
36653;SDS011;22650;49.350;20.898;2023-04-03T04:11:46;1.25;;;0.93;;
36653;SDS011;22650;49.350;20.898;2023-04-03T04:14:21;1.70;;;1.10;;
36653;SDS011;22650;49.350;20.898;2023-04-03T04:16:56;1.15;;;0.88;;
36653;SDS011;22650;49.350;20.898;2023-04-03T04:19:31;0.30;;;0.30;;
36653;SDS011;22650;49.350;20.898;2023-04-03T04:22:07;2.05;;;1.20;;
36653;SDS011;22650;49.350;20.898;2023-04-03T04:24:40;0.98;;;0.60;;
36653;SDS011;22650;49.350;20.898;2023-04-03T04:27:14;0.77;;;0.30;;
36653;SDS011;22650;49.350;20.898;2023-04-03T04:29:48;1.33;;;1.00;;
36653;SDS011;22650;49.350;20.898;2023-04-03T04:32:22;0.60;;;0.60;;
36653;SDS011;22650;49.350;20.898;2023-04-03T04:34:56;0.70;;;0.45;;
36653;SDS011;22650;49.350;20.898;2023-04-03T04:37:33;1.30;;;0.60;;
36653;SDS011;22650;49.350;20.898;2023-04-03T04:40:07;0.65;;;0.43;;
36653;SDS011;22650;49.350;20.898;2023-04-03T04:42:42;0.52;;;0.50;;
36653;SDS011;22650;49.350;20.898;2023-04-03T04:45:15;0.82;;;0.60;;
36653;SDS011;22650;49.350;20.898;2023-04-03T04:47:51;0.93;;;0.50;;
36653;SDS011;22650;49.350;20.898;2023-04-03T04:50:28;0.68;;;0.60;;
36653;SDS011;22650;49.350;20.898;2023-04-03T04:53:04;0.68;;;0.52;;
36653;SDS011;22650;49.350;20.898;2023-04-03T04:55:37;1.20;;;0.55;;
36653;SDS011;22650;49.350;20.898;2023-04-03T04:58:11;1.98;;;0.57;;
36653;SDS011;22650;49.350;20.898;2023-04-03T05:00:44;0.73;;;0.73;;
36653;SDS011;22650;49.350;20.898;2023-04-03T05:03:18;0.60;;;0.40;;
36653;SDS011;22650;49.350;20.898;2023-04-03T05:05:52;1.40;;;0.60;;
36653;SDS011;22650;49.350;20.898;2023-04-03T05:08:27;0.95;;;0.60;;
36653;SDS011;22650;49.350;20.898;2023-04-03T05:11:00;1.23;;;0.60;;
36653;SDS011;22650;49.350;20.898;2023-04-03T05:13:35;0.80;;;0.35;;
36653;SDS011;22650;49.350;20.898;2023-04-03T05:16:09;0.47;;;0.40;;
36653;SDS011;22650;49.350;20.898;2023-04-03T05:18:43;0.32;;;0.32;;
36653;SDS011;22650;49.350;20.898;2023-04-03T05:21:21;1.05;;;0.73;;
36653;SDS011;22650;49.350;20.898;2023-04-03T05:23:59;0.95;;;0.60;;
36653;SDS011;22650;49.350;20.898;2023-04-03T05:26:37;1.63;;;0.80;;
36653;SDS011;22650;49.350;20.898;2023-04-03T05:29:12;1.85;;;0.60;;
36653;SDS011;22650;49.350;20.898;2023-04-03T05:31:46;1.70;;;0.75;;
36653;SDS011;22650;49.350;20.898;2023-04-03T05:34:21;1.50;;;0.68;;
36653;SDS011;22650;49.350;20.898;2023-04-03T05:36:57;2.45;;;0.80;;
36653;SDS011;22650;49.350;20.898;2023-04-03T05:39:33;2.53;;;1.05;;
36653;SDS011;22650;49.350;20.898;2023-04-03T05:42:09;1.35;;;0.82;;
36653;SDS011;22650;49.350;20.898;2023-04-03T05:44:43;2.10;;;1.15;;
36653;SDS011;22650;49.350;20.898;2023-04-03T05:47:18;2.58;;;1.35;;
36653;SDS011;22650;49.350;20.898;2023-04-03T05:49:52;3.25;;;1.27;;
36653;SDS011;22650;49.350;20.898;2023-04-03T05:52:26;2.85;;;1.42;;
36653;SDS011;22650;49.350;20.898;2023-04-03T05:55:03;1.80;;;1.13;;
36653;SDS011;22650;49.350;20.898;2023-04-03T05:57:39;2.70;;;1.17;;
36653;SDS011;22650;49.350;20.898;2023-04-03T06:00:13;3.28;;;1.05;;
36653;SDS011;22650;49.350;20.898;2023-04-03T06:02:56;1.08;;;0.68;;
36653;SDS011;22650;49.350;20.898;2023-04-03T06:05:30;1.42;;;0.85;;
36653;SDS011;22650;49.350;20.898;2023-04-03T06:08:03;1.13;;;0.68;;
36653;SDS011;22650;49.350;20.898;2023-04-03T06:10:38;0.82;;;0.40;;
36653;SDS011;22650;49.350;20.898;2023-04-03T06:13:12;0.88;;;0.50;;
36653;SDS011;22650;49.350;20.898;2023-04-03T06:15:45;0.57;;;0.40;;
36653;SDS011;22650;49.350;20.898;2023-04-03T06:18:20;1.30;;;0.60;;
36653;SDS011;22650;49.350;20.898;2023-04-03T06:20:54;1.17;;;0.60;;
36653;SDS011;22650;49.350;20.898;2023-04-03T06:23:27;5.15;;;0.45;;
36653;SDS011;22650;49.350;20.898;2023-04-03T06:26:02;1.95;;;0.50;;
36653;SDS011;22650;49.350;20.898;2023-04-03T06:28:37;2.60;;;0.73;;
36653;SDS011;22650;49.350;20.898;2023-04-03T06:31:10;2.30;;;0.70;;
36653;SDS011;22650;49.350;20.898;2023-04-03T06:33:44;0.50;;;0.43;;
36653;SDS011;22650;49.350;20.898;2023-04-03T06:36:18;3.33;;;0.90;;
36653;SDS011;22650;49.350;20.898;2023-04-03T06:38:53;0.85;;;0.40;;
36653;SDS011;22650;49.350;20.898;2023-04-03T06:41:28;1.85;;;0.65;;
36653;SDS011;22650;49.350;20.898;2023-04-03T06:44:02;1.65;;;0.68;;
36653;SDS011;22650;49.350;20.898;2023-04-03T06:46:35;1.20;;;0.77;;
36653;SDS011;22650;49.350;20.898;2023-04-03T06:49:09;1.92;;;0.80;;
36653;SDS011;22650;49.350;20.898;2023-04-03T06:51:43;0.82;;;0.50;;
36653;SDS011;22650;49.350;20.898;2023-04-03T06:54:17;9.07;;;2.95;;
36653;SDS011;22650;49.350;20.898;2023-04-03T06:56:52;1.40;;;0.80;;
36653;SDS011;22650;49.350;20.898;2023-04-03T06:59:25;1.65;;;0.70;;
36653;SDS011;22650;49.350;20.898;2023-04-03T07:01:59;1.55;;;0.85;;
36653;SDS011;22650;49.350;20.898;2023-04-03T07:04:33;1.27;;;0.85;;
36653;SDS011;22650;49.350;20.898;2023-04-03T07:07:07;1.27;;;0.73;;
36653;SDS011;22650;49.350;20.898;2023-04-03T07:09:41;0.98;;;0.77;;
36653;SDS011;22650;49.350;20.898;2023-04-03T07:12:18;1.42;;;1.10;;
36653;SDS011;22650;49.350;20.898;2023-04-03T07:14:52;0.75;;;0.40;;
36653;SDS011;22650;49.350;20.898;2023-04-03T07:17:25;2.03;;;1.15;;
36653;SDS011;22650;49.350;20.898;2023-04-03T07:19:59;2.45;;;0.77;;
36653;SDS011;22650;49.350;20.898;2023-04-03T07:22:35;4.72;;;1.60;;
36653;SDS011;22650;49.350;20.898;2023-04-03T07:25:09;2.53;;;0.90;;
36653;SDS011;22650;49.350;20.898;2023-04-03T07:27:44;0.90;;;0.60;;
36653;SDS011;22650;49.350;20.898;2023-04-03T07:30:17;2.15;;;1.48;;
36653;SDS011;22650;49.350;20.898;2023-04-03T07:32:51;2.22;;;1.17;;
36653;SDS011;22650;49.350;20.898;2023-04-03T07:35:24;2.03;;;1.30;;
36653;SDS011;22650;49.350;20.898;2023-04-03T07:37:58;2.63;;;0.68;;
36653;SDS011;22650;49.350;20.898;2023-04-03T07:40:33;0.70;;;0.68;;
36653;SDS011;22650;49.350;20.898;2023-04-03T07:43:08;1.65;;;0.63;;
36653;SDS011;22650;49.350;20.898;2023-04-03T07:45:42;1.67;;;0.95;;
36653;SDS011;22650;49.350;20.898;2023-04-03T07:48:17;1.40;;;0.35;;
36653;SDS011;22650;49.350;20.898;2023-04-03T07:50:58;2.08;;;0.93;;
36653;SDS011;22650;49.350;20.898;2023-04-03T07:53:33;1.08;;;0.63;;
36653;SDS011;22650;49.350;20.898;2023-04-03T07:56:06;1.55;;;0.77;;
36653;SDS011;22650;49.350;20.898;2023-04-03T07:58:42;0.50;;;0.40;;
36653;SDS011;22650;49.350;20.898;2023-04-03T08:01:15;1.30;;;0.77;;
36653;SDS011;22650;49.350;20.898;2023-04-03T08:03:49;0.93;;;0.63;;
36653;SDS011;22650;49.350;20.898;2023-04-03T08:06:23;2.53;;;0.60;;
36653;SDS011;22650;49.350;20.898;2023-04-03T08:09:16;1.85;;;0.95;;
36653;SDS011;22650;49.350;20.898;2023-04-03T08:11:50;1.67;;;0.80;;
36653;SDS011;22650;49.350;20.898;2023-04-03T08:14:27;0.90;;;0.70;;
36653;SDS011;22650;49.350;20.898;2023-04-03T08:17:02;0.55;;;0.50;;
36653;SDS011;22650;49.350;20.898;2023-04-03T08:19:37;0.73;;;0.40;;
36653;SDS011;22650;49.350;20.898;2023-04-03T08:22:11;0.80;;;0.60;;
36653;SDS011;22650;49.350;20.898;2023-04-03T08:24:44;1.38;;;0.63;;
36653;SDS011;22650;49.350;20.898;2023-04-03T08:27:30;1.05;;;0.70;;
36653;SDS011;22650;49.350;20.898;2023-04-03T08:30:08;3.67;;;0.68;;
36653;SDS011;22650;49.350;20.898;2023-04-03T08:32:42;0.93;;;0.57;;
36653;SDS011;22650;49.350;20.898;2023-04-03T08:35:16;1.38;;;0.65;;
36653;SDS011;22650;49.350;20.898;2023-04-03T08:37:51;10.65;;;0.73;;
36653;SDS011;22650;49.350;20.898;2023-04-03T08:40:25;0.75;;;0.70;;
36653;SDS011;22650;49.350;20.898;2023-04-03T08:43:02;0.47;;;0.35;;
36653;SDS011;22650;49.350;20.898;2023-04-03T08:45:48;0.60;;;0.40;;
36653;SDS011;22650;49.350;20.898;2023-04-03T08:48:26;3.22;;;0.60;;
36653;SDS011;22650;49.350;20.898;2023-04-03T08:51:04;0.50;;;0.38;;
36653;SDS011;22650;49.350;20.898;2023-04-03T08:53:46;0.65;;;0.50;;
36653;SDS011;22650;49.350;20.898;2023-04-03T08:56:26;2.75;;;0.52;;
36653;SDS011;22650;49.350;20.898;2023-04-03T08:59:03;1.80;;;0.63;;
36653;SDS011;22650;49.350;20.898;2023-04-03T09:01:43;0.45;;;0.45;;
36653;SDS011;22650;49.350;20.898;2023-04-03T09:04:17;1.05;;;0.73;;
36653;SDS011;22650;49.350;20.898;2023-04-03T09:06:52;1.13;;;0.68;;
36653;SDS011;22650;49.350;20.898;2023-04-03T09:09:32;1.20;;;0.68;;
36653;SDS011;22650;49.350;20.898;2023-04-03T09:12:12;1.15;;;0.60;;
36653;SDS011;22650;49.350;20.898;2023-04-03T09:14:55;1.58;;;0.73;;
36653;SDS011;22650;49.350;20.898;2023-04-03T09:17:38;2.10;;;0.47;;
36653;SDS011;22650;49.350;20.898;2023-04-03T09:20:19;1.15;;;0.80;;
36653;SDS011;22650;49.350;20.898;2023-04-03T09:23:00;1.85;;;0.77;;
36653;SDS011;22650;49.350;20.898;2023-04-03T09:25:38;5.05;;;2.70;;
36653;SDS011;22650;49.350;20.898;2023-04-03T09:28:13;2.08;;;1.25;;
36653;SDS011;22650;49.350;20.898;2023-04-03T09:30:46;0.65;;;0.45;;
36653;SDS011;22650;49.350;20.898;2023-04-03T09:33:21;0.63;;;0.63;;
36653;SDS011;22650;49.350;20.898;2023-04-03T09:35:56;1.25;;;0.68;;
36653;SDS011;22650;49.350;20.898;2023-04-03T09:38:29;1.48;;;0.80;;
36653;SDS011;22650;49.350;20.898;2023-04-03T09:41:06;1.00;;;0.50;;
36653;SDS011;22650;49.350;20.898;2023-04-03T09:43:51;2.05;;;0.68;;
36653;SDS011;22650;49.350;20.898;2023-04-03T09:46:30;0.60;;;0.50;;
36653;SDS011;22650;49.350;20.898;2023-04-03T09:49:08;0.85;;;0.57;;
36653;SDS011;22650;49.350;20.898;2023-04-03T09:51:44;2.03;;;0.82;;
36653;SDS011;22650;49.350;20.898;2023-04-03T09:54:25;1.58;;;0.60;;
36653;SDS011;22650;49.350;20.898;2023-04-03T09:57:06;0.70;;;0.50;;
36653;SDS011;22650;49.350;20.898;2023-04-03T09:59:46;1.23;;;0.55;;
36653;SDS011;22650;49.350;20.898;2023-04-03T10:02:36;0.50;;;0.50;;
36653;SDS011;22650;49.350;20.898;2023-04-03T10:05:26;1.33;;;0.50;;
36653;SDS011;22650;49.350;20.898;2023-04-03T10:08:07;0.63;;;0.50;;
36653;SDS011;22650;49.350;20.898;2023-04-03T10:10:43;2.40;;;0.60;;
36653;SDS011;22650;49.350;20.898;2023-04-03T10:13:19;1.10;;;0.50;;
36653;SDS011;22650;49.350;20.898;2023-04-03T10:15:55;0.77;;;0.50;;
36653;SDS011;22650;49.350;20.898;2023-04-03T10:18:37;0.43;;;0.40;;
36653;SDS011;22650;49.350;20.898;2023-04-03T10:21:20;0.88;;;0.55;;
36653;SDS011;22650;49.350;20.898;2023-04-03T10:24:08;0.38;;;0.38;;
36653;SDS011;22650;49.350;20.898;2023-04-03T10:26:49;1.15;;;0.52;;
36653;SDS011;22650;49.350;20.898;2023-04-03T10:29:31;5.10;;;0.73;;
36653;SDS011;22650;49.350;20.898;2023-04-03T10:32:21;1.98;;;0.90;;
36653;SDS011;22650;49.350;20.898;2023-04-03T10:35:16;1.20;;;0.50;;
36653;SDS011;22650;49.350;20.898;2023-04-03T10:38:00;0.63;;;0.55;;
36653;SDS011;22650;49.350;20.898;2023-04-03T10:40:38;0.95;;;0.68;;
36653;SDS011;22650;49.350;20.898;2023-04-03T10:43:22;0.90;;;0.70;;
36653;SDS011;22650;49.350;20.898;2023-04-03T10:46:02;1.08;;;0.52;;
36653;SDS011;22650;49.350;20.898;2023-04-03T10:51:39;1.38;;;0.70;;
36653;SDS011;22650;49.350;20.898;2023-04-03T10:54:18;0.57;;;0.57;;
36653;SDS011;22650;49.350;20.898;2023-04-03T10:56:56;1.50;;;1.00;;
36653;SDS011;22650;49.350;20.898;2023-04-03T10:59:43;1.88;;;0.60;;
36653;SDS011;22650;49.350;20.898;2023-04-03T11:02:22;1.50;;;0.98;;
36653;SDS011;22650;49.350;20.898;2023-04-03T11:05:03;1.03;;;0.60;;
36653;SDS011;22650;49.350;20.898;2023-04-03T11:07:42;0.82;;;0.80;;
36653;SDS011;22650;49.350;20.898;2023-04-03T11:10:23;2.08;;;0.90;;
36653;SDS011;22650;49.350;20.898;2023-04-03T11:13:01;3.58;;;1.08;;
36653;SDS011;22650;49.350;20.898;2023-04-03T11:15:43;1.48;;;0.70;;
36653;SDS011;22650;49.350;20.898;2023-04-03T11:18:20;1.50;;;1.00;;
36653;SDS011;22650;49.350;20.898;2023-04-03T11:20:59;1.60;;;1.05;;
36653;SDS011;22650;49.350;20.898;2023-04-03T11:23:36;1.48;;;0.75;;
36653;SDS011;22650;49.350;20.898;2023-04-03T11:26:22;9.48;;;0.88;;
36653;SDS011;22650;49.350;20.898;2023-04-03T11:29:01;1.25;;;0.70;;
36653;SDS011;22650;49.350;20.898;2023-04-03T11:31:42;2.45;;;1.23;;
36653;SDS011;22650;49.350;20.898;2023-04-03T11:34:31;1.23;;;0.88;;
36653;SDS011;22650;49.350;20.898;2023-04-03T11:37:13;1.38;;;1.10;;
36653;SDS011;22650;49.350;20.898;2023-04-03T11:39:54;1.25;;;1.15;;
36653;SDS011;22650;49.350;20.898;2023-04-03T11:42:33;1.17;;;0.93;;
36653;SDS011;22650;49.350;20.898;2023-04-03T11:45:15;1.17;;;0.77;;
36653;SDS011;22650;49.350;20.898;2023-04-03T11:48:01;2.30;;;0.80;;
36653;SDS011;22650;49.350;20.898;2023-04-03T11:50:54;4.60;;;0.95;;
36653;SDS011;22650;49.350;20.898;2023-04-03T11:53:35;0.85;;;0.63;;
36653;SDS011;22650;49.350;20.898;2023-04-03T12:01:54;0.77;;;0.50;;
36653;SDS011;22650;49.350;20.898;2023-04-03T12:04:30;1.48;;;0.73;;
36653;SDS011;22650;49.350;20.898;2023-04-03T12:07:14;1.83;;;1.00;;
36653;SDS011;22650;49.350;20.898;2023-04-03T12:09:56;1.60;;;0.90;;
36653;SDS011;22650;49.350;20.898;2023-04-03T12:12:33;3.75;;;1.48;;
36653;SDS011;22650;49.350;20.898;2023-04-03T12:15:25;2.42;;;1.05;;
36653;SDS011;22650;49.350;20.898;2023-04-03T12:24:41;2.15;;;1.20;;
36653;SDS011;22650;49.350;20.898;2023-04-03T12:30:14;2.88;;;1.58;;
36653;SDS011;22650;49.350;20.898;2023-04-03T12:35:58;2.78;;;1.13;;
36653;SDS011;22650;49.350;20.898;2023-04-03T12:38:41;2.42;;;1.40;;
36653;SDS011;22650;49.350;20.898;2023-04-03T12:41:36;2.88;;;1.48;;
36653;SDS011;22650;49.350;20.898;2023-04-03T12:44:23;2.28;;;1.60;;
36653;SDS011;22650;49.350;20.898;2023-04-03T12:47:10;2.30;;;1.52;;
36653;SDS011;22650;49.350;20.898;2023-04-03T12:49:57;4.13;;;1.85;;
36653;SDS011;22650;49.350;20.898;2023-04-03T12:52:33;5.63;;;1.85;;
36653;SDS011;22650;49.350;20.898;2023-04-03T12:55:14;3.45;;;1.40;;
36653;SDS011;22650;49.350;20.898;2023-04-03T12:57:51;3.58;;;1.52;;
36653;SDS011;22650;49.350;20.898;2023-04-03T13:00:27;1.83;;;1.30;;
36653;SDS011;22650;49.350;20.898;2023-04-03T13:03:06;3.00;;;1.27;;
36653;SDS011;22650;49.350;20.898;2023-04-03T13:05:59;3.35;;;1.60;;
36653;SDS011;22650;49.350;20.898;2023-04-03T13:08:34;1.52;;;1.23;;
36653;SDS011;22650;49.350;20.898;2023-04-03T13:11:09;2.20;;;1.58;;
36653;SDS011;22650;49.350;20.898;2023-04-03T13:13:53;3.63;;;1.33;;
36653;SDS011;22650;49.350;20.898;2023-04-03T13:16:28;2.85;;;1.67;;
36653;SDS011;22650;49.350;20.898;2023-04-03T13:19:03;2.05;;;1.35;;
36653;SDS011;22650;49.350;20.898;2023-04-03T13:21:38;3.28;;;2.05;;
36653;SDS011;22650;49.350;20.898;2023-04-03T13:24:12;3.08;;;1.42;;
36653;SDS011;22650;49.350;20.898;2023-04-03T13:26:46;3.13;;;1.60;;
36653;SDS011;22650;49.350;20.898;2023-04-03T13:29:21;8.32;;;4.18;;
36653;SDS011;22650;49.350;20.898;2023-04-03T13:32:02;11.52;;;4.65;;
36653;SDS011;22650;49.350;20.898;2023-04-03T13:34:38;5.35;;;2.00;;
36653;SDS011;22650;49.350;20.898;2023-04-03T13:37:23;4.65;;;2.47;;
36653;SDS011;22650;49.350;20.898;2023-04-03T13:40:00;4.75;;;2.17;;
36653;SDS011;22650;49.350;20.898;2023-04-03T13:42:42;6.75;;;2.13;;
36653;SDS011;22650;49.350;20.898;2023-04-03T13:45:17;3.67;;;2.28;;
36653;SDS011;22650;49.350;20.898;2023-04-03T13:48:06;4.57;;;2.50;;
36653;SDS011;22650;49.350;20.898;2023-04-03T13:50:58;5.57;;;2.92;;
36653;SDS011;22650;49.350;20.898;2023-04-03T13:53:41;4.55;;;2.55;;
36653;SDS011;22650;49.350;20.898;2023-04-03T13:58:53;4.47;;;2.90;;
36653;SDS011;22650;49.350;20.898;2023-04-03T14:01:33;3.45;;;2.55;;
36653;SDS011;22650;49.350;20.898;2023-04-03T14:04:15;7.63;;;2.72;;
36653;SDS011;22650;49.350;20.898;2023-04-03T14:06:51;5.97;;;3.17;;
36653;SDS011;22650;49.350;20.898;2023-04-03T14:09:27;4.90;;;2.45;;
36653;SDS011;22650;49.350;20.898;2023-04-03T14:12:02;5.10;;;2.65;;
36653;SDS011;22650;49.350;20.898;2023-04-03T14:14:48;4.15;;;2.53;;
36653;SDS011;22650;49.350;20.898;2023-04-03T14:17:23;6.97;;;2.92;;
36653;SDS011;22650;49.350;20.898;2023-04-03T14:19:58;4.28;;;2.20;;
36653;SDS011;22650;49.350;20.898;2023-04-03T14:22:32;4.55;;;1.67;;
36653;SDS011;22650;49.350;20.898;2023-04-03T14:25:08;5.93;;;2.20;;
36653;SDS011;22650;49.350;20.898;2023-04-03T14:27:43;3.70;;;1.80;;
36653;SDS011;22650;49.350;20.898;2023-04-03T14:30:19;3.38;;;1.50;;
36653;SDS011;22650;49.350;20.898;2023-04-03T14:32:54;5.70;;;2.25;;
36653;SDS011;22650;49.350;20.898;2023-04-03T14:35:29;7.35;;;2.35;;
36653;SDS011;22650;49.350;20.898;2023-04-03T14:38:02;6.28;;;2.08;;
36653;SDS011;22650;49.350;20.898;2023-04-03T14:43:20;7.10;;;2.78;;
36653;SDS011;22650;49.350;20.898;2023-04-03T14:45:53;7.05;;;2.85;;
36653;SDS011;22650;49.350;20.898;2023-04-03T14:48:28;8.20;;;2.42;;
36653;SDS011;22650;49.350;20.898;2023-04-03T14:51:03;7.93;;;3.13;;
36653;SDS011;22650;49.350;20.898;2023-04-03T14:53:37;5.93;;;1.77;;
36653;SDS011;22650;49.350;20.898;2023-04-03T14:56:12;7.32;;;2.90;;
36653;SDS011;22650;49.350;20.898;2023-04-03T14:58:47;5.38;;;2.47;;
36653;SDS011;22650;49.350;20.898;2023-04-03T15:01:22;9.68;;;2.70;;
36653;SDS011;22650;49.350;20.898;2023-04-03T15:03:56;8.95;;;3.50;;
36653;SDS011;22650;49.350;20.898;2023-04-03T15:06:30;9.23;;;2.97;;
36653;SDS011;22650;49.350;20.898;2023-04-03T15:09:08;5.20;;;2.83;;
36653;SDS011;22650;49.350;20.898;2023-04-03T15:11:51;11.38;;;3.92;;
36653;SDS011;22650;49.350;20.898;2023-04-03T15:14:26;6.82;;;3.30;;
36653;SDS011;22650;49.350;20.898;2023-04-03T15:17:08;5.22;;;1.88;;
36653;SDS011;22650;49.350;20.898;2023-04-03T15:19:47;8.00;;;3.20;;
36653;SDS011;22650;49.350;20.898;2023-04-03T15:22:21;10.95;;;5.10;;
36653;SDS011;22650;49.350;20.898;2023-04-03T15:24:54;5.88;;;2.53;;
36653;SDS011;22650;49.350;20.898;2023-04-03T15:27:29;8.23;;;4.00;;
36653;SDS011;22650;49.350;20.898;2023-04-03T15:30:03;6.72;;;2.55;;
36653;SDS011;22650;49.350;20.898;2023-04-03T15:32:37;7.78;;;2.47;;
36653;SDS011;22650;49.350;20.898;2023-04-03T15:35:10;8.27;;;3.50;;
36653;SDS011;22650;49.350;20.898;2023-04-03T15:37:44;12.70;;;3.72;;
36653;SDS011;22650;49.350;20.898;2023-04-03T15:40:18;8.38;;;3.42;;
36653;SDS011;22650;49.350;20.898;2023-04-03T15:42:53;6.70;;;3.05;;
36653;SDS011;22650;49.350;20.898;2023-04-03T15:45:27;4.75;;;2.25;;
36653;SDS011;22650;49.350;20.898;2023-04-03T15:48:03;6.57;;;2.90;;
36653;SDS011;22650;49.350;20.898;2023-04-03T15:50:38;7.35;;;3.13;;
36653;SDS011;22650;49.350;20.898;2023-04-03T15:53:12;5.00;;;2.50;;
36653;SDS011;22650;49.350;20.898;2023-04-03T15:55:46;3.95;;;2.28;;